TKPK

Details ICAO TKPK (SKB)
Name St. Kitts/Bradshaw Intl
Region Saint Kitts and Nevis
Timezone America/St_Kitts (UTC-4.0)
Plans Departing 164
Arriving 232
Stats Elevation 169 ft / 52 m (AMSL)
Location 17.311200° -62.718700°
Runways 1
Magnetic Variation 14.484° W
Sunrise 2019-02-18 10:37:29 UTC / 2019-02-18 06:37:29 Local
Sunset 2019-02-18 22:15:04 UTC / 2019-02-18 18:15:04 Local
Advertisement - Login to hide

Runways

ID Width Length Bearing (true/mag) Surface Threshold Overrun Markings Lighting
07 148 ft / 45 m 7,620 ft / 2,323 m 56.95° / 71.43° ASPHALT 200 ft / 61 m 0 ft / 0 m APP EDGE THRESHOLD
25 148 ft / 45 m 7,620 ft / 2,323 m 236.95° / 251.43° ASPHALT 0 ft / 0 m 0 ft / 0 m APP EDGE THRESHOLD REIL-OMNI

Map

Weather


0- 5 10 15 20 25 30 35+ Temperature / °C

Clouds and Precipitation
Forecast for 2019-02-19 00:00 UTC. Updated an hour ago

Ground ~20,000 ft ~40,000 ft Winds

METAR

TKPK 182200Z 06017KT 9999 FEW023 26/20 Q1019

TAF

TAF TKPK 181739Z 1818/1918 07016KT P6SM FEW020 AMD NOT SKED 1902/1911

Frequencies

Ground 121.90 MHz
Approach 119.60 MHz
Tower 118.30 MHz
Warning: Do not use this data for real-world aviation or navigation. No guarantee of current accuracy is given.